Time;durP1;ratioP1;P1;durP2;ratioP2;P2;SDS_P1;SDS_P2;PMS_P1;PMS_P2;Temp;Humidity;BMP_temperature;BMP_pressure;BME280_temperature;BME280_humidity;BME280_pressure;Samples;Min_cycle;Max_cycle;Signal;HPM_P1;HPM_P2
2022/08/21 00:01:22;;;;;;;11.32;5.70;;;;;;;20.69;70.17;94919.84;5028417;28;20029;-84
2022/08/21 00:03:47;;;;;;;11.10;6.20;;;;;;;20.68;70.79;94923.66;5028887;28;20025;-84
2022/08/21 00:06:13;;;;;;;9.93;5.63;;;;;;;20.69;70.11;94911.66;5028232;28;20021;-84
2022/08/21 00:08:38;;;;;;;7.88;5.45;;;;;;;20.68;71.04;94910.03;5028988;28;20084;-84
2022/08/21 00:11:04;;;;;;;12.10;5.90;;;;;;;20.68;70.71;94908.13;5028221;28;20029;-85
2022/08/21 00:13:29;;;;;;;8.63;5.63;;;;;;;20.66;70.58;94914.91;5027334;28;20044;-84
2022/08/21 00:15:55;;;;;;;7.32;5.45;;;;;;;20.71;70.02;94907.63;5028087;28;20033;-84
2022/08/21 00:18:20;;;;;;;10.40;5.18;;;;;;;20.69;69.85;94908.94;5026998;28;20476;-84
2022/08/21 00:20:46;;;;;;;8.05;4.80;;;;;;;20.66;69.73;94909.44;5028825;28;20427;-84
2022/08/21 00:23:12;;;;;;;7.13;4.55;;;;;;;20.61;70.01;94897.44;5027658;28;20434;-84
2022/08/21 00:25:38;;;;;;;8.77;4.85;;;;;;;20.66;70.08;94895.81;5028987;28;20083;-83
2022/08/21 00:28:04;;;;;;;7.63;5.20;;;;;;;20.57;70.29;94895.47;5027521;28;20046;-84
2022/08/21 00:30:29;;;;;;;7.55;4.72;;;;;;;20.63;70.10;94895.25;5028601;28;20021;-84
2022/08/21 00:32:55;;;;;;;6.88;5.22;;;;;;;20.59;70.89;94887.84;5027557;28;20079;-84
2022/08/21 00:35:23;;;;;;;11.65;5.65;;;;;;;20.58;70.97;94889.75;5028306;28;20427;-84
2022/08/21 00:37:49;;;;;;;8.60;5.40;;;;;;;20.57;70.68;94895.47;5026844;28;20036;-84
2022/08/21 00:40:17;;;;;;;10.40;5.78;;;;;;;20.65;70.15;94891.47;5027870;28;20025;-84
2022/08/21 00:42:43;;;;;;;7.35;4.93;;;;;;;20.68;70.01;94893.69;5027515;28;20097;-84
2022/08/21 00:45:09;;;;;;;9.00;5.43;;;;;;;20.63;70.09;94889.00;5024560;28;20087;-84
2022/08/21 00:47:35;;;;;;;8.45;5.20;;;;;;;20.71;69.97;94890.44;5028642;28;20021;-83
2022/08/21 00:50:00;;;;;;;8.43;5.88;;;;;;;20.70;69.59;94896.97;5028350;28;20048;-83
2022/08/21 00:52:29;;;;;;;9.45;5.53;;;;;;;20.75;69.74;94883.41;5028378;28;20112;-83
2022/08/21 00:54:54;;;;;;;11.15;6.70;;;;;;;20.68;70.03;94889.06;5012808;28;20044;-83
2022/08/21 00:57:28;;;;;;;8.07;5.55;;;;;;;20.66;69.95;94890.38;5026966;28;20041;-85
2022/08/21 00:59:55;;;;;;;8.38;5.47;;;;;;;20.58;70.41;94895.22;5027025;28;20049;-83
2022/08/21 01:02:20;;;;;;;8.45;5.40;;;;;;;20.55;70.46;94898.44;5026198;28;20061;-84
2022/08/21 01:04:46;;;;;;;9.45;5.63;;;;;;;20.58;70.51;94891.66;5029290;28;20527;-83
2022/08/21 01:07:12;;;;;;;9.70;5.43;;;;;;;20.52;70.72;94893.50;5031529;28;20045;-85
2022/08/21 01:09:38;;;;;;;9.07;5.10;;;;;;;20.52;71.28;94890.78;5029312;28;20068;-84
2022/08/21 01:12:04;;;;;;;7.10;4.68;;;;;;;20.51;70.22;94886.38;5026438;28;20021;-84
2022/08/21 01:14:30;;;;;;;9.10;5.13;;;;;;;20.50;70.29;94884.75;5027907;28;20069;-84
2022/08/21 01:16:55;;;;;;;9.70;4.97;;;;;;;20.54;70.59;94885.88;5028655;28;20028;-84
2022/08/21 01:19:21;;;;;;;9.30;4.90;;;;;;;20.52;70.21;94881.78;5026062;28;20026;-85
2022/08/21 01:21:46;;;;;;;8.73;5.72;;;;;;;20.50;71.02;94879.31;5028196;28;20468;-84
2022/08/21 01:24:12;;;;;;;8.85;5.93;;;;;;;20.47;70.89;94872.44;5026542;28;20403;-85
2022/08/21 01:26:37;;;;;;;8.05;5.95;;;;;;;20.47;70.71;94869.72;5027421;28;20428;-84
2022/08/21 01:29:15;;;;;;;9.05;5.18;;;;;;;20.48;70.52;94874.13;5026630;28;20053;-84
2022/08/21 01:31:40;;;;;;;8.25;4.95;;;;;;;20.44;70.22;94874.88;5027130;28;20076;-83
2022/08/21 01:34:06;;;;;;;8.20;4.80;;;;;;;20.44;70.20;94867.50;5026662;28;20037;-84
2022/08/21 01:36:32;;;;;;;10.27;5.70;;;;;;;20.46;70.28;94872.69;5026798;28;20105;-83
2022/08/21 01:38:57;;;;;;;9.70;5.28;;;;;;;20.42;69.76;94874.31;5027836;28;20021;-84
2022/08/21 01:41:23;;;;;;;8.35;5.10;;;;;;;20.36;69.93;94887.84;5026342;28;20112;-83
2022/08/21 01:43:48;;;;;;;8.57;5.50;;;;;;;20.40;69.93;94876.44;5027310;28;20032;-84
2022/08/21 01:46:14;;;;;;;8.55;6.07;;;;;;;20.31;69.85;94876.91;5026235;28;20531;-83
2022/08/21 01:48:39;;;;;;;8.73;6.07;;;;;;;20.36;69.59;94876.16;5026988;28;20075;-83
2022/08/21 01:51:05;;;;;;;12.73;6.45;;;;;;;20.34;69.61;94879.13;5026657;28;20033;-84
2022/08/21 01:53:31;;;;;;;11.80;6.60;;;;;;;20.32;69.49;94884.00;5027395;28;20029;-85
2022/08/21 01:55:56;;;;;;;10.88;6.80;;;;;;;20.21;69.85;94876.75;5026932;28;20021;-84
2022/08/21 01:58:22;;;;;;;10.55;6.95;;;;;;;20.19;69.64;94878.91;5026533;28;20037;-84
2022/08/21 02:00:49;;;;;;;10.57;6.97;;;;;;;20.17;69.75;94878.34;5027963;28;20026;-84
2022/08/21 02:03:14;;;;;;;15.10;7.28;;;;;;;20.17;69.82;94879.16;5026032;28;20084;-84
2022/08/21 02:05:40;;;;;;;10.75;7.10;;;;;;;20.22;69.82;94875.69;5027140;28;20083;-84
2022/08/21 02:08:05;;;;;;;12.63;7.75;;;;;;;20.24;69.56;94881.69;5026673;28;20087;-84
2022/08/21 02:10:31;;;;;;;10.57;7.07;;;;;;;20.24;69.59;94887.16;5026918;28;20112;-84
2022/08/21 02:12:58;;;;;;;14.35;7.95;;;;;;;20.19;69.45;94876.19;5026478;28;20025;-83
2022/08/21 02:15:24;;;;;;;10.93;8.00;;;;;;;20.20;69.18;94886.03;5026719;28;20155;-84
2022/08/21 02:17:51;;;;;;;13.13;7.95;;;;;;;20.18;69.05;94883.53;5027677;28;20029;-84
2022/08/21 02:20:38;;;;;;;10.48;7.30;;;;;;;20.21;69.27;94890.38;5026004;28;20025;-84
2022/08/21 02:23:04;;;;;;;11.38;7.60;;;;;;;20.15;69.35;94889.50;5027087;28;20033;-84
2022/08/21 02:25:30;;;;;;;11.48;7.78;;;;;;;20.11;69.57;94889.16;5026290;28;20029;-84
2022/08/21 02:27:55;;;;;;;13.25;8.32;;;;;;;20.09;69.75;94885.88;5026695;28;20084;-83
2022/08/21 02:30:26;;;;;;;13.63;8.18;;;;;;;20.04;69.66;94883.06;5026194;28;20033;-83
2022/08/21 02:32:52;;;;;;;11.57;8.10;;;;;;;19.99;69.74;94882.97;5026761;28;20476;-84
2022/08/21 02:35:18;;;;;;;16.77;8.77;;;;;;;19.99;69.48;94880.25;5027154;28;20025;-85
2022/08/21 02:38:05;;;;;;;14.88;8.48;;;;;;;19.97;69.55;94885.13;5025984;28;20025;-83
2022/08/21 02:40:32;;;;;;;16.98;8.63;;;;;;;19.77;70.53;94892.75;5026340;28;20345;-83
2022/08/21 02:42:58;;;;;;;12.85;7.93;;;;;;;19.68;71.35;94902.41;5026135;28;20026;-84
2022/08/21 02:45:28;;;;;;;12.05;7.30;;;;;;;19.61;71.74;94899.84;5026148;28;20477;-84
2022/08/21 02:48:05;;;;;;;10.70;8.18;;;;;;;19.51;72.23;94900.50;5026400;28;20029;-84
2022/08/21 02:50:36;;;;;;;13.75;8.27;;;;;;;19.59;71.95;94901.97;5026359;28;20076;-83
2022/08/21 02:53:02;;;;;;;13.52;8.38;;;;;;;19.49;72.25;94894.47;5026879;28;20530;-84
2022/08/21 02:55:29;;;;;;;11.50;8.10;;;;;;;19.54;72.17;94901.06;5025596;28;20029;-84
2022/08/21 02:57:55;;;;;;;11.20;7.97;;;;;;;19.49;72.42;94902.63;5026790;28;20017;-84
2022/08/21 03:00:21;;;;;;;12.88;7.45;;;;;;;19.42;72.36;94896.53;5026347;28;20570;-84
2022/08/21 03:02:47;;;;;;;11.15;7.90;;;;;;;19.34;72.83;94895.06;5026384;28;20085;-83
2022/08/21 03:05:14;;;;;;;10.60;7.93;;;;;;;19.45;72.52;94892.50;5026223;28;20507;-84
2022/08/21 03:07:40;;;;;;;16.27;7.93;;;;;;;19.45;72.39;94890.59;5026470;28;20096;-83
2022/08/21 03:10:06;;;;;;;11.85;6.82;;;;;;;19.51;72.65;94895.06;5038075;28;20163;-84
2022/08/21 03:12:31;;;;;;;10.43;7.13;;;;;;;19.59;72.22;94909.28;5032669;28;20065;-84
2022/08/21 03:14:57;;;;;;;13.23;8.00;;;;;;;19.70;71.95;94915.75;5031483;28;20095;-83
2022/08/21 03:17:24;;;;;;;10.70;7.22;;;;;;;19.67;71.75;94917.03;5034816;28;20088;-84
2022/08/21 03:19:49;;;;;;;11.23;8.18;;;;;;;19.67;71.62;94900.72;5040640;28;20029;-84
2022/08/21 03:22:15;;;;;;;12.20;8.50;;;;;;;19.64;71.88;94901.22;5039818;28;20024;-84
2022/08/21 03:24:40;;;;;;;13.10;7.93;;;;;;;19.68;71.52;94907.84;5038766;28;20030;-83
2022/08/21 03:27:05;;;;;;;13.50;7.53;;;;;;;19.68;71.53;94907.00;5038480;28;20021;-84
2022/08/21 03:29:31;;;;;;;13.98;8.45;;;;;;;19.73;71.34;94897.00;5037732;28;20025;-83
2022/08/21 03:31:56;;;;;;;12.55;7.95;;;;;;;19.70;71.80;94897.50;5032442;28;20041;-84
2022/08/21 03:34:22;;;;;;;11.93;7.38;;;;;;;19.77;71.51;94900.91;5031069;28;20032;-83
2022/08/21 03:36:48;;;;;;;12.90;7.57;;;;;;;19.81;71.49;94903.94;5031048;28;20024;-84
2022/08/21 03:39:15;;;;;;;10.55;7.88;;;;;;;19.85;71.54;94896.94;5030024;28;20500;-83
2022/08/21 03:41:40;;;;;;;11.05;8.02;;;;;;;19.93;71.71;94894.84;5030345;28;20540;-83
2022/08/21 03:44:05;;;;;;;12.13;7.95;;;;;;;19.99;71.41;94893.88;5029364;28;20492;-84
2022/08/21 03:46:31;;;;;;;14.40;8.63;;;;;;;19.99;71.10;94904.75;5029038;28;20377;-83
2022/08/21 03:48:57;;;;;;;11.80;8.52;;;;;;;19.89;71.28;94895.34;5029239;28;20029;-85
2022/08/21 03:51:22;;;;;;;13.25;8.35;;;;;;;19.91;71.27;94907.91;5029548;28;20083;-84
2022/08/21 03:53:48;;;;;;;13.90;9.23;;;;;;;19.82;71.38;94910.19;5032195;28;20018;-85
2022/08/21 03:56:13;;;;;;;13.60;9.45;;;;;;;19.80;71.68;94907.72;5028586;28;20025;-84
2022/08/21 03:58:38;;;;;;;16.55;9.32;;;;;;;19.85;71.69;94901.53;5030730;28;20388;-84
2022/08/21 04:01:05;;;;;;;20.48;11.05;;;;;;;19.84;71.91;94906.19;5028634;28;20033;-83
2022/08/21 04:03:31;;;;;;;21.30;10.85;;;;;;;19.85;72.05;94913.25;5030635;28;20045;-84
2022/08/21 04:05:57;;;;;;;15.45;10.88;;;;;;;19.83;71.79;94920.84;5029011;28;20029;-84
2022/08/21 04:08:22;;;;;;;13.98;10.43;;;;;;;19.88;72.16;94915.47;5029911;28;20478;-84
2022/08/21 04:10:50;;;;;;;17.13;10.30;;;;;;;19.87;72.09;94916.56;5028623;28;20033;-84
2022/08/21 04:13:15;;;;;;;15.85;10.48;;;;;;;19.89;71.81;94917.13;5028177;28;20295;-84
2022/08/21 04:15:41;;;;;;;14.55;10.20;;;;;;;19.84;71.92;94913.50;5029114;28;20033;-84
2022/08/21 04:18:06;;;;;;;15.52;10.40;;;;;;;19.81;71.88;94914.84;5028687;28;20034;-84
2022/08/21 04:20:32;;;;;;;17.20;11.10;;;;;;;19.78;71.97;94912.59;5029495;28;20022;-85
2022/08/21 04:22:58;;;;;;;13.85;10.25;;;;;;;19.83;72.11;94909.16;5028148;28;20508;-84
2022/08/21 04:25:25;;;;;;;21.77;11.55;;;;;;;19.78;72.17;94912.59;5029377;28;20026;-85
2022/08/21 04:27:51;;;;;;;13.68;10.57;;;;;;;19.77;72.23;94908.22;5028490;28;20453;-85
2022/08/21 04:30:16;;;;;;;14.70;10.35;;;;;;;19.85;72.46;94918.69;5028860;28;20469;-85
2022/08/21 04:32:43;;;;;;;14.50;9.52;;;;;;;19.88;72.52;94914.63;5028619;28;20033;-85
2022/08/21 04:35:09;;;;;;;15.38;10.52;;;;;;;19.83;72.70;94906.44;5028577;28;20037;-83
2022/08/21 04:37:35;;;;;;;15.48;10.75;;;;;;;19.77;73.12;94911.78;5029289;28;20021;-84
2022/08/21 04:40:01;;;;;;;12.65;9.65;;;;;;;19.80;72.66;94910.44;5027967;28;20029;-84
2022/08/21 04:42:27;;;;;;;14.10;10.02;;;;;;;19.76;73.13;94912.03;5028769;28;20502;-84
2022/08/21 04:44:53;;;;;;;13.77;9.98;;;;;;;19.89;73.07;94914.38;5027571;28;20591;-84
2022/08/21 04:47:18;;;;;;;14.85;10.43;;;;;;;19.97;72.89;94920.50;5028463;28;20034;-84
2022/08/21 04:49:44;;;;;;;16.23;10.60;;;;;;;19.91;72.99;94916.88;5027769;28;20022;-84
2022/08/21 04:52:10;;;;;;;13.77;9.88;;;;;;;19.87;73.40;94911.13;5027919;28;20488;-85
2022/08/21 04:54:36;;;;;;;14.52;10.10;;;;;;;19.93;73.16;94919.34;5027960;28;20026;-84
2022/08/21 04:57:05;;;;;;;14.00;9.88;;;;;;;19.99;73.57;94912.91;5027593;28;20030;-84
2022/08/21 04:59:36;;;;;;;15.65;10.38;;;;;;;19.98;73.45;94912.09;5027468;28;20026;-83
2022/08/21 05:02:02;;;;;;;17.30;10.87;;;;;;;19.97;73.61;94915.06;5027586;28;20056;-84
2022/08/21 05:04:30;;;;;;;14.70;10.15;;;;;;;20.03;73.29;94905.94;5029219;28;20439;-85
2022/08/21 05:06:57;;;;;;;15.90;11.13;;;;;;;19.99;72.91;94905.56;5026914;28;20381;-84
2022/08/21 05:09:22;;;;;;;16.98;11.05;;;;;;;20.00;72.85;94917.28;5027512;28;20536;-84
2022/08/21 05:11:48;;;;;;;18.35;12.05;;;;;;;19.96;72.91;94918.84;5026493;28;20034;-84
2022/08/21 05:14:14;;;;;;;15.43;10.82;;;;;;;19.91;73.30;94922.31;5027306;28;20120;-84
2022/08/21 05:16:41;;;;;;;16.95;10.60;;;;;;;19.98;73.83;94927.59;5028047;28;20411;-84
2022/08/21 05:19:07;;;;;;;18.88;11.27;;;;;;;20.12;73.70;94926.19;5027394;28;20025;-84
2022/08/21 05:21:34;;;;;;;18.67;11.20;;;;;;;20.22;73.33;94920.06;5031410;28;20025;-85
2022/08/21 05:23:59;;;;;;;15.90;11.07;;;;;;;20.26;73.23;94920.41;5025598;28;20030;-83
2022/08/21 05:26:25;;;;;;;18.08;10.30;;;;;;;20.29;72.84;94928.06;5027331;28;20036;-84
2022/08/21 05:28:50;;;;;;;15.40;10.40;;;;;;;20.33;73.10;94921.03;5026701;28;20432;-85
2022/08/21 05:31:16;;;;;;;14.27;9.98;;;;;;;20.40;72.72;94911.84;5027465;28;20025;-85
2022/08/21 05:33:41;;;;;;;14.98;10.40;;;;;;;20.41;72.62;94908.06;5027330;28;20519;-84
2022/08/21 05:36:07;;;;;;;16.58;10.82;;;;;;;20.45;72.92;94903.75;5027000;28;20029;-83
2022/08/21 05:38:32;;;;;;;15.90;11.07;;;;;;;20.53;72.46;94910.66;5027561;28;20025;-84
2022/08/21 05:40:57;;;;;;;17.02;11.30;;;;;;;20.57;72.25;94900.91;5027101;28;20033;-83
2022/08/21 05:43:23;;;;;;;15.15;11.13;;;;;;;20.61;72.15;94907.50;5027608;28;20032;-84
2022/08/21 05:45:48;;;;;;;18.05;11.43;;;;;;;20.66;72.31;94902.09;5027322;28;20455;-84
2022/08/21 05:48:17;;;;;;;15.48;11.18;;;;;;;20.64;72.03;94901.53;5026706;28;20542;-84
2022/08/21 05:50:43;;;;;;;17.52;11.77;;;;;;;20.71;71.82;94904.91;5026703;28;20034;-85
2022/08/21 05:53:09;;;;;;;20.05;13.18;;;;;;;20.80;71.94;94899.81;5026879;28;20025;-85
2022/08/21 05:55:36;;;;;;;18.15;12.88;;;;;;;20.78;72.02;94899.22;5026710;28;20476;-83
2022/08/21 05:58:01;;;;;;;17.00;12.52;;;;;;;20.75;71.44;94906.03;5026459;28;20029;-86
2022/08/21 06:00:28;;;;;;;15.18;11.52;;;;;;;20.75;71.68;94907.91;5026964;28;20083;-84
2022/08/21 06:02:54;;;;;;;18.92;12.45;;;;;;;20.78;71.80;94907.41;5026127;28;20032;-84
2022/08/21 06:05:19;;;;;;;21.10;12.70;;;;;;;20.81;71.01;94908.81;5026734;28;20018;-84
2022/08/21 06:07:44;;;;;;;16.52;11.80;;;;;;;20.78;70.71;94903.88;5026186;28;20026;-83
2022/08/21 06:10:10;;;;;;;18.05;12.57;;;;;;;20.82;70.31;94908.56;5026514;28;20416;-85
2022/08/21 06:12:36;;;;;;;17.50;13.00;;;;;;;20.73;71.00;94905.44;5026228;28;20596;-84
2022/08/21 06:15:01;;;;;;;18.63;12.75;;;;;;;20.76;70.75;94904.13;5026100;28;20029;-83
2022/08/21 06:17:27;;;;;;;23.85;14.38;;;;;;;20.85;70.74;94899.03;5026975;28;20471;-84
2022/08/21 06:19:53;;;;;;;18.80;13.32;;;;;;;20.90;70.73;94901.00;5026042;28;20026;-84
2022/08/21 06:22:18;;;;;;;19.75;12.90;;;;;;;21.04;70.70;94905.00;5026973;28;20033;-84
2022/08/21 06:24:44;;;;;;;21.80;15.10;;;;;;;21.15;69.56;94899.66;5025736;28;20488;-82
2022/08/21 06:27:10;;;;;;;17.52;12.98;;;;;;;21.18;69.59;94899.16;5026352;28;20037;-80
2022/08/21 06:29:35;;;;;;;19.27;12.85;;;;;;;21.25;68.66;94894.28;5025851;28;20030;-84
2022/08/21 06:32:01;;;;;;;18.75;13.65;;;;;;;21.25;69.33;94899.75;5026257;28;20039;-83
2022/08/21 06:34:26;;;;;;;21.13;13.00;;;;;;;21.31;68.99;94895.97;5026315;28;20033;-84
2022/08/21 06:36:52;;;;;;;17.67;12.05;;;;;;;21.40;68.13;94903.69;5026060;28;20484;-84
2022/08/21 06:39:17;;;;;;;17.35;11.90;;;;;;;21.45;68.53;94901.84;5026987;28;20099;-83
2022/08/21 06:41:42;;;;;;;15.07;11.45;;;;;;;21.55;68.36;94900.28;5025350;28;20075;-82
2022/08/21 06:44:08;;;;;;;20.02;11.48;;;;;;;21.66;67.89;94896.56;5026202;28;20037;-83
2022/08/21 06:46:33;;;;;;;16.45;11.35;;;;;;;21.70;67.69;94894.16;5025325;28;20030;-83
2022/08/21 06:48:59;;;;;;;17.05;11.65;;;;;;;21.61;67.74;94908.25;5026035;28;20029;-83
2022/08/21 06:51:30;;;;;;;18.80;12.35;;;;;;;21.66;67.48;94904.75;5025764;28;20029;-84
2022/08/21 06:53:55;;;;;;;16.85;11.27;;;;;;;21.76;66.27;94903.19;5025973;28;20373;-85
2022/08/21 06:56:21;;;;;;;15.52;11.27;;;;;;;21.65;66.27;94902.28;5026686;28;20029;-84
2022/08/21 06:58:46;;;;;;;17.52;11.88;;;;;;;21.73;67.53;94899.06;5025420;28;20515;-84
2022/08/21 07:01:12;;;;;;;17.15;12.75;;;;;;;21.78;66.95;94904.59;5026240;28;20030;-82
2022/08/21 07:03:39;;;;;;;25.23;14.27;;;;;;;21.71;67.00;94906.69;5024927;28;20626;-84
2022/08/21 07:06:05;;;;;;;16.38;12.68;;;;;;;21.60;67.20;94903.88;5026183;28;20457;-84
2022/08/21 07:08:30;;;;;;;14.60;11.73;;;;;;;21.76;66.43;94914.94;5025851;28;20049;-84
2022/08/21 07:10:57;;;;;;;15.23;10.60;;;;;;;21.55;67.06;94914.75;5025614;28;20032;-83
2022/08/21 07:13:22;;;;;;;14.20;11.07;;;;;;;21.61;67.22;94921.06;5025839;28;20474;-84
2022/08/21 07:15:47;;;;;;;20.00;11.98;;;;;;;21.69;66.96;94919.75;5025102;28;20026;-83
2022/08/21 07:18:13;;;;;;;15.13;10.95;;;;;;;21.79;66.82;94908.16;5025825;28;20040;-85
2022/08/21 07:20:39;;;;;;;18.05;10.80;;;;;;;21.97;66.65;94915.09;5024914;28;20054;-84
2022/08/21 07:23:06;;;;;;;15.90;11.15;;;;;;;22.02;65.42;94917.84;5025793;28;20423;-85
2022/08/21 07:25:31;;;;;;;18.02;10.30;;;;;;;22.02;65.80;94912.38;5023795;28;20213;-85
2022/08/21 07:27:57;;;;;;;16.73;11.27;;;;;;;22.09;65.09;94912.16;5025253;28;20049;-85
2022/08/21 07:30:22;;;;;;;13.63;9.30;;;;;;;22.25;63.38;94925.94;5025254;28;20029;-84
2022/08/21 07:32:51;;;;;;;14.38;9.32;;;;;;;22.28;63.10;94909.81;5025136;28;20025;-84
2022/08/21 07:35:17;;;;;;;13.05;10.07;;;;;;;22.46;63.89;94908.56;5025902;28;20408;-84
2022/08/21 07:37:43;;;;;;;14.80;9.70;;;;;;;22.56;63.79;94907.78;5024404;28;20096;-85
2022/08/21 07:40:08;;;;;;;13.88;9.93;;;;;;;22.73;63.50;94901.34;5026131;28;20505;-85
2022/08/21 07:42:34;;;;;;;13.82;9.63;;;;;;;22.93;63.11;94894.28;5025003;28;20033;-84
2022/08/21 07:44:59;;;;;;;13.90;9.63;;;;;;;23.01;61.09;94891.00;5025242;28;20033;-83
2022/08/21 07:47:25;;;;;;;13.35;8.82;;;;;;;23.23;59.87;94892.69;5024851;28;20072;-85
2022/08/21 07:49:50;;;;;;;13.50;8.68;;;;;;;23.36;60.76;94879.59;5027950;28;20030;-85
2022/08/21 07:52:16;;;;;;;15.57;8.52;;;;;;;23.43;59.83;94882.91;5026701;28;20053;-84
2022/08/21 07:54:41;;;;;;;12.20;8.77;;;;;;;23.31;61.21;94883.94;5028686;28;20021;-85
2022/08/21 07:57:07;;;;;;;10.98;8.48;;;;;;;23.51;59.71;94874.16;5029323;28;20071;-83
2022/08/21 07:59:32;;;;;;;13.80;9.05;;;;;;;23.61;61.00;94883.44;5028526;28;20029;-84
2022/08/21 08:01:58;;;;;;;12.70;9.25;;;;;;;23.73;59.87;94875.78;5029276;28;20076;-83
2022/08/21 08:04:23;;;;;;;16.10;10.20;;;;;;;23.52;59.71;94881.25;5028206;28;20032;-83
2022/08/21 08:06:49;;;;;;;13.50;9.88;;;;;;;23.37;60.27;94879.31;5029372;28;20022;-83
2022/08/21 08:09:15;;;;;;;12.35;9.07;;;;;;;22.96;60.94;94880.88;5028213;28;20028;-83
2022/08/21 08:11:43;;;;;;;15.57;9.05;;;;;;;22.96;60.85;94880.88;5028669;28;20381;-83
2022/08/21 08:14:08;;;;;;;14.77;9.15;;;;;;;23.28;61.64;94881.75;5028662;28;20476;-83
2022/08/21 08:16:34;;;;;;;16.55;9.52;;;;;;;23.36;59.40;94876.84;5028392;28;20036;-84
2022/08/21 08:18:59;;;;;;;15.98;9.52;;;;;;;23.24;59.02;94864.25;5028880;28;20400;-84
2022/08/21 08:21:25;;;;;;;13.30;8.85;;;;;;;23.53;58.80;94871.13;5028241;28;20018;-84
2022/08/21 08:23:50;;;;;;;13.98;8.73;;;;;;;23.65;59.17;94866.19;5028683;28;20087;-83
2022/08/21 08:26:17;;;;;;;14.40;8.07;;;;;;;23.61;59.12;94861.56;5027931;28;20084;-84
2022/08/21 08:28:42;;;;;;;11.50;8.10;;;;;;;23.89;59.27;94873.03;5028465;28;20400;-84
2022/08/21 08:31:08;;;;;;;13.23;8.98;;;;;;;24.23;58.68;94864.22;5027915;28;20443;-84
2022/08/21 08:33:33;;;;;;;12.90;9.18;;;;;;;24.29;56.50;94871.34;5028157;28;20076;-84
2022/08/21 08:35:59;;;;;;;13.68;8.95;;;;;;;24.31;57.41;94871.06;5028575;28;20498;-84
2022/08/21 08:38:24;;;;;;;11.23;8.50;;;;;;;24.30;57.20;94870.22;5027642;28;20021;-83
2022/08/21 08:40:52;;;;;;;12.48;7.38;;;;;;;24.36;56.60;94864.75;5028599;28;20045;-83
2022/08/21 08:43:18;;;;;;;12.07;7.68;;;;;;;24.18;56.55;94864.25;5025992;28;20029;-84
2022/08/21 08:45:46;;;;;;;13.25;9.15;;;;;;;24.30;57.63;94862.00;5028805;28;20021;-83
2022/08/21 08:48:13;;;;;;;15.35;8.15;;;;;;;23.97;57.18;94866.19;5026476;28;20032;-84
2022/08/21 08:50:56;;;;;;;16.92;7.85;;;;;;;23.99;56.65;94872.22;5010230;28;20061;-83
2022/08/21 08:53:25;;;;;;;10.43;7.90;;;;;;;24.22;57.22;94876.28;5027118;28;20124;-84
2022/08/21 08:55:51;;;;;;;11.82;7.97;;;;;;;24.35;55.80;94863.09;5025994;28;20171;-83
2022/08/21 08:58:24;;;;;;;10.15;7.57;;;;;;;24.31;56.59;94863.66;5026859;28;20071;-81
2022/08/21 09:00:49;;;;;;;;;;;;;;;24.26;57.83;94860.91;5028648;28;20036;-84
2022/08/21 09:03:15;;;;;;;12.85;7.80;;;;;;;24.24;56.48;94865.88;5027826;28;19917;-85
2022/08/21 09:05:55;;;;;;;11.55;7.93;;;;;;;24.42;54.59;94863.63;5027034;28;20079;-83
2022/08/21 09:08:33;;;;;;;9.90;6.93;;;;;;;24.41;54.39;94862.78;5027352;28;20045;-83
2022/08/21 09:11:34;;;;;;;11.77;7.72;;;;;;;24.48;54.77;94854.28;5028444;28;20091;-84
2022/08/21 09:14:09;;;;;;;14.00;8.27;;;;;;;24.41;54.50;94845.53;5044692;28;20786;-84
2022/08/21 09:16:59;;;;;;;16.10;8.57;;;;;;;24.40;57.20;94839.25;5025970;28;20046;-83
2022/08/21 09:19:31;;;;;;;11.32;7.47;;;;;;;24.20;58.41;94840.13;5027966;28;20037;-83
2022/08/21 09:22:16;;;;;;;15.85;8.13;;;;;;;24.38;54.84;94837.88;5027010;28;20033;-83
2022/08/21 09:24:54;;;;;;;11.70;7.35;;;;;;;24.14;55.89;94827.50;5027639;28;20120;-83
2022/08/21 09:27:21;;;;;;;11.00;7.93;;;;;;;24.23;55.45;94834.06;5025531;28;20509;-82
2022/08/21 09:29:50;;;;;;;9.18;7.53;;;;;;;24.37;55.07;94828.00;5027478;28;20487;-83
2022/08/21 09:32:18;;;;;;;15.80;8.35;;;;;;;24.38;54.81;94818.69;5027379;28;20053;-84
2022/08/21 09:34:54;;;;;;;13.05;7.10;;;;;;;24.40;55.11;94821.97;5026348;28;20912;-84
2022/08/21 09:37:20;;;;;;;11.82;6.80;;;;;;;24.47;55.43;94822.50;5027668;28;20116;-84
2022/08/21 09:39:45;;;;;;;12.18;7.15;;;;;;;24.30;54.95;94818.19;5026728;28;20032;-83
2022/08/21 09:42:11;;;;;;;19.38;8.18;;;;;;;24.31;56.49;94817.06;5027532;28;20033;-83
2022/08/21 09:44:39;;;;;;;13.32;6.57;;;;;;;24.27;56.23;94815.16;5026732;28;20041;-84
2022/08/21 09:47:06;;;;;;;13.50;7.32;;;;;;;24.10;57.00;94820.97;5025912;28;20037;-82
2022/08/21 09:49:37;;;;;;;11.05;6.93;;;;;;;24.61;55.80;94817.22;5027332;28;20053;-84
2022/08/21 09:52:21;;;;;;;10.13;5.97;;;;;;;24.90;55.01;94807.50;5026448;28;20159;-83
2022/08/21 09:54:48;;;;;;;8.45;5.88;;;;;;;25.03;53.22;94806.88;5026241;28;20463;-83
2022/08/21 09:57:38;;;;;;;8.57;5.05;;;;;;;24.91;53.06;94814.59;5025435;28;20025;-83
2022/08/21 10:00:29;;;;;;;7.72;4.47;;;;;;;24.72;53.03;94804.28;5012235;28;20072;-84
2022/08/21 10:03:25;;;;;;;9.67;4.87;;;;;;;24.57;54.22;94805.16;5026349;28;20037;-84
2022/08/21 10:05:52;;;;;;;11.23;4.32;;;;;;;24.42;53.61;94801.41;5026179;28;20389;-84
2022/08/21 10:08:19;;;;;;;11.07;4.88;;;;;;;24.31;54.00;94800.63;5026838;28;20028;-83
2022/08/21 10:10:45;;;;;;;12.13;4.80;;;;;;;24.29;54.04;94800.13;5026551;28;20032;-83
2022/08/21 10:13:39;;;;;;;6.90;5.00;;;;;;;24.25;55.46;94796.28;5025156;28;20026;-84
2022/08/21 10:16:12;;;;;;;10.48;5.68;;;;;;;24.19;55.05;94797.41;5026893;28;20072;-83
2022/08/21 10:18:42;;;;;;;8.43;5.72;;;;;;;24.15;54.94;94791.66;5024031;28;20124;-84
2022/08/21 10:21:17;;;;;;;12.95;6.18;;;;;;;24.39;55.36;94796.47;5025736;28;20042;-82
2022/08/21 10:24:01;;;;;;;12.80;5.70;;;;;;;24.50;54.58;94797.28;5024838;28;20037;-83
2022/08/21 10:26:43;;;;;;;9.30;4.85;;;;;;;24.59;54.27;94789.25;5026732;28;20063;-83
2022/08/21 10:29:24;;;;;;;9.25;5.43;;;;;;;24.60;54.57;94781.88;5025493;28;20452;-83
2022/08/21 10:32:43;;;;;;;9.32;5.45;;;;;;;24.50;54.31;94788.22;5025661;28;20435;-84
2022/08/21 10:35:25;;;;;;;11.52;6.03;;;;;;;24.40;55.59;94786.34;5043526;28;20126;-83
2022/08/21 10:37:53;;;;;;;11.23;6.43;;;;;;;24.51;54.69;94776.16;5025436;28;20025;-83
2022/08/21 10:40:34;;;;;;;13.55;6.63;;;;;;;24.61;54.53;94775.28;5026066;28;20484;-84
2022/08/21 10:43:38;;;;;;;7.82;5.35;;;;;;;24.60;53.93;94771.72;5009093;28;20081;-84
2022/08/21 10:46:16;;;;;;;10.05;5.55;;;;;;;24.61;54.65;94767.88;5043559;28;20068;-85
2022/08/21 10:48:51;;;;;;;10.40;5.97;;;;;;;24.69;54.01;94770.03;5008722;28;20119;-85
2022/08/21 10:51:40;;;;;;;12.65;5.95;;;;;;;24.73;54.79;94758.50;5027021;28;20025;-84
2022/08/21 10:54:28;;;;;;;12.20;5.70;;;;;;;25.02;55.84;94763.25;5024692;28;20400;-84
2022/08/21 10:57:13;;;;;;;8.80;5.30;;;;;;;25.11;54.13;94760.72;5024714;28;20569;-84
2022/08/21 10:59:47;;;;;;;11.98;5.68;;;;;;;25.14;54.56;94751.91;5025166;28;20108;-84
2022/08/21 11:02:20;;;;;;;9.52;4.93;;;;;;;25.12;52.89;94748.63;5008380;28;20062;-84
2022/08/21 11:04:56;;;;;;;7.50;4.60;;;;;;;25.16;53.61;94744.22;5024330;28;20030;-85
2022/08/21 11:07:50;;;;;;;9.27;5.10;;;;;;;25.16;53.14;94738.72;5025692;28;20056;-83
2022/08/21 11:10:28;;;;;;;10.18;5.30;;;;;;;25.14;53.43;94735.44;5040528;28;20064;-85
2022/08/21 11:13:00;;;;;;;9.63;5.03;;;;;;;25.06;52.07;94734.97;5008850;28;20029;-84
2022/08/21 11:15:45;;;;;;;9.15;5.25;;;;;;;25.04;52.17;94742.66;5023952;28;20033;-85
2022/08/21 11:18:29;;;;;;;7.65;4.40;;;;;;;24.92;52.44;94731.25;5025812;28;20025;-83
2022/08/21 11:21:27;;;;;;;9.55;5.25;;;;;;;24.83;52.72;94727.44;5025910;28;20104;-84
2022/08/21 11:24:31;;;;;;;7.82;4.72;;;;;;;24.97;52.42;94725.72;5023683;28;20056;-85
2022/08/21 11:27:21;;;;;;;8.30;5.10;;;;;;;25.02;52.31;94722.91;5024145;28;20108;-84
2022/08/21 11:29:52;;;;;;;10.57;5.57;;;;;;;25.20;53.97;94720.56;5025986;28;20179;-84
2022/08/21 11:32:26;;;;;;;8.67;4.83;;;;;;;25.25;51.28;94719.72;5029361;28;20534;-84